createdAt,value
2024-02-27T00:01:28.037Z,98410.16
2024-02-27T00:04:03.040Z,98407.06
2024-02-27T00:06:32.145Z,98413.66
2024-02-27T00:09:01.459Z,98423.16
2024-02-27T00:11:29.761Z,98427.28
2024-02-27T00:13:57.143Z,98418.41
2024-02-27T00:16:23.941Z,98429.16
2024-02-27T00:18:50.834Z,98426.66
2024-02-27T00:21:17.708Z,98422.72
2024-02-27T00:23:44.823Z,98424.78
2024-02-27T00:26:11.822Z,98433.06
2024-02-27T00:28:38.605Z,98429.53
2024-02-27T00:31:05.405Z,98432.63
2024-02-27T00:33:32.217Z,98430.16
2024-02-27T00:36:01.950Z,98438.59
2024-02-27T00:38:28.821Z,98441.28
2024-02-27T00:40:55.538Z,98443.34
2024-02-27T00:43:22.545Z,98442.94
2024-02-27T00:45:49.313Z,98443.97
2024-02-27T00:48:16.311Z,98440.00
2024-02-27T00:50:43.338Z,98448.69
2024-02-27T00:53:10.498Z,98455.28
2024-02-27T00:55:37.207Z,98466.41
2024-02-27T00:58:03.994Z,98465.34
2024-02-27T01:00:32.190Z,98458.53
2024-02-27T01:02:58.944Z,98465.13
2024-02-27T01:05:25.721Z,98469.03
2024-02-27T01:07:52.617Z,98476.47
2024-02-27T01:10:19.389Z,98483.69
2024-02-27T01:12:46.301Z,98478.72
2024-02-27T01:15:13.358Z,98480.78
2024-02-27T01:17:42.257Z,98496.06
2024-02-27T01:20:09.613Z,98499.16
2024-02-27T01:22:36.726Z,98501.03
2024-02-27T01:25:03.895Z,98495.22
2024-02-27T01:27:33.452Z,98506.34
2024-02-27T01:30:00.331Z,98505.06
2024-02-27T01:32:27.121Z,98507.53
2024-02-27T01:34:54.256Z,98511.63
2024-02-27T01:37:21.399Z,98520.06
2024-02-27T01:39:48.348Z,98518.59
2024-02-27T01:42:15.259Z,98527.66
2024-02-27T01:44:50.322Z,98528.88
2024-02-27T01:47:18.548Z,98535.91
2024-02-27T01:49:45.813Z,98537.97
2024-02-27T01:52:13.811Z,98537.97
2024-02-27T01:54:43.527Z,98543.88
2024-02-27T01:57:12.419Z,98554.44
2024-02-27T01:59:40.529Z,98541.66
2024-02-27T02:02:08.590Z,98553.78
2024-02-27T02:04:36.394Z,98558.50
2024-02-27T02:07:04.511Z,98566.75
2024-02-27T02:09:32.771Z,98562.41
2024-02-27T02:11:59.997Z,98566.31
2024-02-27T02:14:26.934Z,98570.84
2024-02-27T02:16:53.793Z,98571.25
2024-02-27T02:19:20.800Z,98572.44
2024-02-27T02:21:54.116Z,98576.53
2024-02-27T02:24:22.487Z,98575.25
2024-02-27T02:26:51.658Z,98584.72
2024-02-27T02:29:18.343Z,98574.38
2024-02-27T02:31:45.043Z,98581.78
2024-02-27T02:34:11.821Z,98581.78
2024-02-27T02:36:38.630Z,98586.50
2024-02-27T02:39:05.441Z,98579.28
2024-02-27T02:41:32.252Z,98590.00
2024-02-27T02:43:59.020Z,98585.84
2024-02-27T02:46:26.483Z,98591.59
2024-02-27T02:48:54.520Z,98596.31
2024-02-27T02:51:21.494Z,98600.66
2024-02-27T02:53:48.331Z,98604.38
2024-02-27T02:56:15.027Z,98607.44
2024-02-27T02:58:41.705Z,98609.09
2024-02-27T03:01:08.729Z,98606.41
2024-02-27T03:03:35.490Z,98613.63
2024-02-27T03:06:02.346Z,98613.81
2024-02-27T03:08:29.069Z,98617.50
2024-02-27T03:10:55.917Z,98624.91
2024-02-27T03:13:22.670Z,98621.81
2024-02-27T03:15:49.464Z,98625.69
2024-02-27T03:18:16.275Z,98626.06
2024-02-27T03:20:43.262Z,98619.25
2024-02-27T03:23:10.022Z,98628.50
2024-02-27T03:25:36.748Z,98630.53
2024-02-27T03:28:03.620Z,98636.25
2024-02-27T03:30:30.462Z,98645.31
2024-02-27T03:32:57.545Z,98638.31
2024-02-27T03:35:24.643Z,98637.66
2024-02-27T03:37:51.331Z,98648.56
2024-02-27T03:40:18.257Z,98646.06
2024-02-27T03:42:45.264Z,98654.66
2024-02-27T03:45:12.197Z,98662.91
2024-02-27T03:47:38.917Z,98664.09
2024-02-27T03:50:06.217Z,98663.44
2024-02-27T03:52:33.014Z,98672.31
2024-02-27T03:54:59.799Z,98674.34
2024-02-27T03:57:26.658Z,98678.88
2024-02-27T03:59:53.331Z,98678.25
2024-02-27T04:02:20.078Z,98678.25
2024-02-27T04:04:46.992Z,98690.81
2024-02-27T04:07:13.887Z,98690.81
2024-02-27T04:09:40.912Z,98694.50
2024-02-27T04:12:07.823Z,98699.03
2024-02-27T04:14:34.544Z,98706.25
2024-02-27T04:17:01.377Z,98707.25
2024-02-27T04:19:28.254Z,98710.94
2024-02-27T04:21:55.087Z,98720.66
2024-02-27T04:24:22.648Z,98724.34
2024-02-27T04:26:49.330Z,98725.53
2024-02-27T04:29:16.042Z,98729.88
2024-02-27T04:31:46.350Z,98738.28
2024-02-27T04:34:13.238Z,98753.34
2024-02-27T04:36:46.032Z,98744.84
2024-02-27T04:39:14.127Z,98753.72
2024-02-27T04:41:40.895Z,98751.22
2024-02-27T04:44:10.442Z,98767.66
2024-02-27T04:46:37.258Z,98769.31
2024-02-27T04:49:04.145Z,98756.94
2024-02-27T04:51:31.030Z,98760.00
2024-02-27T04:53:57.826Z,98770.88
2024-02-27T04:56:24.502Z,98778.94
2024-02-27T04:58:51.304Z,98778.75
2024-02-27T05:01:18.204Z,98784.09
2024-02-27T05:03:45.236Z,98779.56
2024-02-27T05:06:12.134Z,98787.78
2024-02-27T05:08:38.941Z,98795.81
2024-02-27T05:11:05.771Z,98793.16
2024-02-27T05:13:32.528Z,98787.78
2024-02-27T05:15:59.178Z,98793.16
2024-02-27T05:18:25.970Z,98796.84
2024-02-27T05:20:52.778Z,98795.19
2024-02-27T05:23:19.561Z,98799.53
2024-02-27T05:25:46.256Z,98810.88
2024-02-27T05:28:13.708Z,98813.75
2024-02-27T05:30:40.512Z,98812.91
2024-02-27T05:33:07.360Z,98821.97
2024-02-27T05:35:34.253Z,98821.97
2024-02-27T05:38:01.047Z,98821.97
2024-02-27T05:40:27.718Z,98823.63
2024-02-27T05:42:54.395Z,98840.53
2024-02-27T05:45:21.084Z,98822.81
2024-02-27T05:47:47.965Z,98836.00
2024-02-27T05:50:14.797Z,98844.72
2024-02-27T05:52:41.498Z,98832.31
2024-02-27T05:55:09.345Z,98841.00
2024-02-27T05:57:36.112Z,98847.03
2024-02-27T06:00:03.007Z,98852.22
2024-02-27T06:02:30.041Z,98844.00
2024-02-27T06:04:56.753Z,98849.34
2024-02-27T06:07:23.481Z,98846.50
2024-02-27T06:09:50.265Z,98855.38
2024-02-27T06:12:16.979Z,98851.84
2024-02-27T06:14:43.794Z,98868.75
2024-02-27T06:17:10.465Z,98863.59
2024-02-27T06:19:44.918Z,98866.25
2024-02-27T06:22:18.242Z,98876.16
2024-02-27T06:24:45.390Z,98887.50
2024-02-27T06:27:12.432Z,98887.34
2024-02-27T06:29:39.140Z,98896.88
2024-02-27T06:32:08.507Z,98898.53
2024-02-27T06:34:36.097Z,98894.84
2024-02-27T06:37:03.101Z,98895.69
2024-02-27T06:39:29.964Z,98903.88
2024-02-27T06:41:56.703Z,98910.91
2024-02-27T06:44:23.445Z,98911.75
2024-02-27T06:46:50.212Z,98914.25
2024-02-27T06:49:22.774Z,98919.63
2024-02-27T06:51:50.511Z,98917.41
2024-02-27T06:54:17.249Z,98927.94
2024-02-27T06:56:44.491Z,98924.25
2024-02-27T06:59:11.403Z,98932.31
2024-02-27T07:01:38.109Z,98926.75
2024-02-27T07:04:05.200Z,98929.25
2024-02-27T07:06:32.012Z,98935.94
2024-02-27T07:08:59.869Z,98942.78
2024-02-27T07:11:28.534Z,98935.75
2024-02-27T07:13:55.586Z,98953.31
2024-02-27T07:16:22.433Z,98955.66
2024-02-27T07:18:49.955Z,98965.38
2024-02-27T07:21:20.151Z,98967.03
2024-02-27T07:23:47.784Z,98981.91
2024-02-27T07:26:14.589Z,98982.41
2024-02-27T07:28:41.308Z,98980.19
2024-02-27T07:31:08.028Z,98994.06
2024-02-27T07:33:34.808Z,98984.84
2024-02-27T07:36:01.654Z,98989.81
2024-02-27T07:38:28.420Z,98999.34
2024-02-27T07:40:55.165Z,98994.63
2024-02-27T07:43:21.952Z,98999.66
2024-02-27T07:45:53.269Z,99002.97
2024-02-27T07:48:23.026Z,99001.31
2024-02-27T07:50:52.683Z,99006.31
2024-02-27T07:53:19.365Z,99009.66
2024-02-27T07:55:46.181Z,99006.97
2024-02-27T07:58:13.419Z,99016.50
2024-02-27T08:00:40.194Z,99024.56
2024-02-27T08:03:07.571Z,99027.06
2024-02-27T08:05:35.759Z,99036.59
2024-02-27T08:08:02.590Z,99032.72
2024-02-27T08:10:29.372Z,99039.09
2024-02-27T08:12:56.129Z,99039.94
2024-02-27T08:15:24.050Z,99046.97
2024-02-27T08:17:50.806Z,99053.16
2024-02-27T08:20:17.607Z,99054.84
2024-02-27T08:22:44.393Z,99054.47
2024-02-27T08:25:11.200Z,99047.25
2024-02-27T08:27:38.026Z,99052.44
2024-02-27T08:30:05.772Z,99058.47
2024-02-27T08:32:32.820Z,99061.16
2024-02-27T08:34:59.911Z,99070.69
2024-02-27T08:37:27.194Z,99065.97
2024-02-27T08:39:53.849Z,99079.88
2024-02-27T08:42:20.638Z,99077.84
2024-02-27T08:44:47.383Z,99093.94
2024-02-27T08:47:14.152Z,99086.56
2024-02-27T08:49:44.760Z,99091.09
2024-02-27T08:52:11.755Z,99096.94
2024-02-27T08:54:38.577Z,99097.94
2024-02-27T08:57:06.393Z,99099.59
2024-02-27T08:59:33.260Z,99104.97
2024-02-27T09:02:00.046Z,99119.06
2024-02-27T09:04:27.147Z,99111.69
2024-02-27T09:06:54.200Z,99112.34
2024-02-27T09:09:21.159Z,99118.53
2024-02-27T09:11:50.092Z,99116.03
2024-02-27T09:14:17.137Z,99136.31
2024-02-27T09:16:43.928Z,99123.09
2024-02-27T09:19:10.761Z,99130.13
2024-02-27T09:21:37.674Z,99128.28
2024-02-27T09:24:04.472Z,99122.72
2024-02-27T09:26:31.376Z,99129.75
2024-02-27T09:28:58.103Z,99134.13
2024-02-27T09:31:31.300Z,99145.31
2024-02-27T09:33:59.359Z,99147.47
2024-02-27T09:36:26.865Z,99148.13
2024-02-27T09:38:53.663Z,99151.47
2024-02-27T09:41:29.526Z,99153.97
2024-02-27T09:43:56.756Z,99168.22
2024-02-27T09:46:27.266Z,99166.56
2024-02-27T09:48:56.716Z,99168.88
2024-02-27T09:51:25.669Z,99170.56
2024-02-27T09:53:57.939Z,99186.66
2024-02-27T09:56:26.064Z,99191.69
2024-02-27T09:58:54.498Z,99193.34
2024-02-27T10:01:23.710Z,99189.66
2024-02-27T10:03:53.025Z,99201.88
2024-02-27T10:06:23.881Z,99194.66
2024-02-27T10:08:55.478Z,99199.38
2024-02-27T10:11:23.045Z,99193.84
2024-02-27T10:13:49.809Z,99202.06
2024-02-27T10:16:22.301Z,99212.81
2024-02-27T10:18:50.570Z,99210.78
2024-02-27T10:21:21.007Z,99204.75
2024-02-27T10:23:47.817Z,99213.47
2024-02-27T10:26:16.479Z,99219.84
2024-02-27T10:28:43.259Z,99219.84
2024-02-27T10:31:11.774Z,99218.19
2024-02-27T10:33:39.782Z,99226.88
2024-02-27T10:36:10.815Z,99233.53
2024-02-27T10:38:37.921Z,99223.47
2024-02-27T10:41:04.967Z,99238.56
2024-02-27T10:43:34.584Z,99242.25
2024-02-27T10:46:01.929Z,99243.09
2024-02-27T10:48:37.848Z,99250.13
2024-02-27T10:51:09.555Z,99250.97
2024-02-27T10:53:38.174Z,99251.44
2024-02-27T10:56:05.907Z,99249.78
2024-02-27T10:58:34.574Z,99245.25
2024-02-27T11:01:01.639Z,99241.53
2024-02-27T11:03:30.384Z,99246.91
2024-02-27T11:05:57.462Z,99245.91
2024-02-27T11:08:24.816Z,99250.25
2024-02-27T11:10:51.919Z,99243.22
2024-02-27T11:13:22.089Z,99253.31
2024-02-27T11:15:53.479Z,99256.81
2024-02-27T11:18:26.719Z,99264.03
2024-02-27T11:20:54.409Z,99264.69
2024-02-27T11:23:21.344Z,99266.38
2024-02-27T11:25:48.065Z,99266.00
2024-02-27T11:28:16.268Z,99262.31
2024-02-27T11:30:43.138Z,99255.75
2024-02-27T11:33:10.346Z,99260.28
2024-02-27T11:35:37.292Z,99257.78
2024-02-27T11:38:06.951Z,99261.13
2024-02-27T11:40:46.723Z,99261.97
2024-02-27T11:43:14.500Z,99272.34
2024-02-27T11:45:41.377Z,99279.03
2024-02-27T11:48:08.710Z,99274.97
2024-02-27T11:50:39.447Z,99272.56
2024-02-27T11:53:27.630Z,99272.56
2024-02-27T11:55:55.645Z,99278.06
2024-02-27T11:58:22.983Z,99278.91
2024-02-27T12:00:52.052Z,99276.50
2024-02-27T12:03:18.943Z,99268.09
2024-02-27T12:05:48.571Z,99265.03
2024-02-27T12:08:20.162Z,99265.69
2024-02-27T12:10:47.740Z,99268.00
2024-02-27T12:13:15.240Z,99265.50
2024-02-27T12:15:42.021Z,99264.31
2024-02-27T12:18:09.087Z,99267.81
2024-02-27T12:20:35.946Z,99258.56
2024-02-27T12:23:02.616Z,99261.25
2024-02-27T12:25:43.935Z,99258.56
2024-02-27T12:28:10.959Z,99257.72
2024-02-27T12:30:38.570Z,99258.56
2024-02-27T12:33:08.198Z,99261.91
2024-02-27T12:35:35.170Z,99257.19
2024-02-27T12:38:02.110Z,99263.22
2024-02-27T12:40:29.287Z,99254.31
2024-02-27T12:42:56.277Z,99257.47
2024-02-27T12:45:24.085Z,99255.25
2024-02-27T12:47:53.014Z,99259.41
2024-02-27T12:50:21.922Z,99257.19
2024-02-27T12:53:11.430Z,99257.03
2024-02-27T12:55:40.324Z,99263.66
2024-02-27T12:58:07.177Z,99256.91
2024-02-27T13:00:34.651Z,99247.44
2024-02-27T13:03:04.082Z,99255.97
2024-02-27T13:05:33.776Z,99261.19
2024-02-27T13:08:00.933Z,99257.09
2024-02-27T13:10:27.730Z,99264.78
2024-02-27T13:13:14.504Z,99254.22
2024-02-27T13:15:46.523Z,99246.16
2024-02-27T13:18:14.696Z,99256.72
2024-02-27T13:20:42.193Z,99256.72
2024-02-27T13:23:17.011Z,99257.38
2024-02-27T13:25:51.730Z,99255.53
2024-02-27T13:28:19.842Z,99257.19
2024-02-27T13:30:47.658Z,99248.94
2024-02-27T13:33:15.392Z,99250.59
2024-02-27T13:35:42.366Z,99254.97
2024-02-27T13:38:09.125Z,99248.56
2024-02-27T13:40:36.547Z,99250.59
2024-02-27T13:43:04.153Z,99254.13
2024-02-27T13:45:32.274Z,99252.28
2024-02-27T13:47:59.083Z,99242.72
2024-02-27T13:50:26.166Z,99245.59
2024-02-27T13:52:53.213Z,99251.72
2024-02-27T13:55:19.926Z,99267.56
2024-02-27T13:57:46.702Z,99265.25
2024-02-27T14:00:14.187Z,99266.00
2024-02-27T14:02:41.358Z,99263.06
2024-02-27T14:05:08.178Z,99277.22
2024-02-27T14:07:34.916Z,99291.22
2024-02-27T14:10:01.840Z,99287.41
2024-02-27T14:12:28.778Z,99292.97
2024-02-27T14:14:55.902Z,99302.41
2024-02-27T14:17:22.667Z,99308.16
2024-02-27T14:19:49.651Z,99302.97
2024-02-27T14:22:19.655Z,99306.38
2024-02-27T14:24:46.484Z,99318.13
2024-02-27T14:27:13.267Z,99323.22
2024-02-27T14:29:40.065Z,99328.94
2024-02-27T14:32:07.369Z,99322.25
2024-02-27T14:34:34.395Z,99338.75
2024-02-27T14:37:01.217Z,99334.75
2024-02-27T14:39:28.075Z,99329.53
2024-02-27T14:41:54.936Z,99338.81
2024-02-27T14:44:21.626Z,99347.88
2024-02-27T14:46:49.454Z,99330.44
2024-02-27T14:49:16.443Z,99334.13
2024-02-27T14:51:46.422Z,99336.16
2024-02-27T14:54:13.291Z,99340.88
2024-02-27T14:56:40.666Z,99356.16
2024-02-27T14:59:07.529Z,99348.28
2024-02-27T15:01:36.930Z,99353.00
2024-02-27T15:04:04.680Z,99344.94
2024-02-27T15:06:31.652Z,99335.19
2024-02-27T15:08:58.497Z,99346.97
2024-02-27T15:11:25.362Z,99341.59
2024-02-27T15:13:52.290Z,99346.13
2024-02-27T15:16:19.082Z,99339.91
2024-02-27T15:18:45.964Z,99344.44
2024-02-27T15:21:13.251Z,99336.38
2024-02-27T15:23:40.028Z,99338.25
2024-02-27T15:26:06.729Z,99341.59
2024-02-27T15:28:33.380Z,99354.00
2024-02-27T15:31:00.220Z,99343.25
2024-02-27T15:33:27.125Z,99338.72
2024-02-27T15:35:53.853Z,99340.56
2024-02-27T15:38:20.507Z,99355.69
2024-02-27T15:40:47.186Z,99368.09
2024-02-27T15:43:14.531Z,99357.34
2024-02-27T15:45:41.968Z,99378.66
2024-02-27T15:48:09.021Z,99372.09
2024-02-27T15:50:36.223Z,99380.16
2024-02-27T15:53:03.031Z,99386.38
2024-02-27T15:55:29.850Z,99389.25
2024-02-27T15:57:56.623Z,99382.84
2024-02-27T16:00:23.598Z,99387.22
2024-02-27T16:02:54.842Z,99394.63
2024-02-27T16:05:28.011Z,99391.25
2024-02-27T16:07:54.843Z,99414.44
2024-02-27T16:10:21.608Z,99412.94
2024-02-27T16:12:48.578Z,99422.19
2024-02-27T16:15:15.377Z,99413.47
2024-02-27T16:17:42.336Z,99420.50
2024-02-27T16:20:09.721Z,99417.16
2024-02-27T16:22:37.759Z,99417.50
2024-02-27T16:25:04.981Z,99413.81
2024-02-27T16:27:31.768Z,99421.19
2024-02-27T16:29:58.611Z,99410.81
2024-02-27T16:32:25.345Z,99405.16
2024-02-27T16:34:52.338Z,99411.53
2024-02-27T16:37:19.147Z,99420.59
2024-02-27T16:39:45.999Z,99427.16
2024-02-27T16:42:17.651Z,99423.81
2024-02-27T16:44:44.677Z,99419.97
2024-02-27T16:47:11.490Z,99435.25
2024-02-27T16:49:38.435Z,99438.09
2024-02-27T16:52:05.448Z,99450.88
2024-02-27T16:54:32.356Z,99459.09
2024-02-27T16:56:59.054Z,99444.84
2024-02-27T16:59:25.897Z,99456.59
2024-02-27T17:01:52.645Z,99442.50
2024-02-27T17:04:19.433Z,99450.72
2024-02-27T17:06:46.348Z,99457.28
2024-02-27T17:09:13.137Z,99443.34
2024-02-27T17:11:39.937Z,99480.09
2024-02-27T17:14:07.079Z,99468.69
2024-02-27T17:16:33.773Z,99476.75
2024-02-27T17:19:00.616Z,99473.22
2024-02-27T17:21:27.461Z,99484.78
2024-02-27T17:23:54.416Z,99475.03
2024-02-27T17:26:21.135Z,99486.78
2024-02-27T17:28:47.861Z,99501.88
2024-02-27T17:31:15.023Z,99519.00
2024-02-27T17:33:41.920Z,99511.09
2024-02-27T17:36:10.208Z,99514.81
2024-02-27T17:38:36.946Z,99506.91
2024-02-27T17:41:03.847Z,99509.78
2024-02-27T17:43:30.560Z,99516.16
2024-02-27T17:45:57.330Z,99532.41
2024-02-27T17:48:24.239Z,99519.16
2024-02-27T17:50:51.053Z,99514.63
2024-02-27T17:53:17.933Z,99531.75
2024-02-27T17:55:44.663Z,99518.34
2024-02-27T17:58:11.358Z,99539.63
2024-02-27T18:00:38.480Z,99529.06
2024-02-27T18:03:05.595Z,99524.53
2024-02-27T18:05:32.370Z,99524.03
2024-02-27T18:07:59.124Z,99524.03
2024-02-27T18:10:27.152Z,99535.09
2024-02-27T18:12:54.044Z,99529.75
2024-02-27T18:15:20.910Z,99542.16
2024-02-27T18:17:48.452Z,99545.84
2024-02-27T18:20:16.199Z,99562.78
2024-02-27T18:22:43.757Z,99565.31
2024-02-27T18:25:12.837Z,99572.34
2024-02-27T18:27:40.785Z,99556.25
2024-02-27T18:30:08.588Z,99570.66
2024-02-27T18:32:35.757Z,99578.03
2024-02-27T18:35:04.605Z,99582.56
2024-02-27T18:37:31.796Z,99574.69
2024-02-27T18:39:59.489Z,99575.69
2024-02-27T18:42:26.957Z,99579.38
2024-02-27T18:44:53.675Z,99594.47
2024-02-27T18:47:21.167Z,99585.75
2024-02-27T18:49:49.749Z,99599.34
2024-02-27T18:52:17.982Z,99593.47
2024-02-27T18:54:45.460Z,99584.06
2024-02-27T18:57:12.498Z,99601.19
2024-02-27T18:59:39.286Z,99608.56
2024-02-27T19:02:06.051Z,99598.47
2024-02-27T19:04:32.717Z,99588.75
2024-02-27T19:06:59.632Z,99602.50
2024-02-27T19:09:27.629Z,99608.19
2024-02-27T19:11:57.269Z,99612.72
2024-02-27T19:14:24.363Z,99608.72
2024-02-27T19:16:51.122Z,99624.97
2024-02-27T19:19:18.041Z,99641.38
2024-02-27T19:21:45.185Z,99634.84
2024-02-27T19:24:11.970Z,99648.44
2024-02-27T19:26:38.697Z,99650.13
2024-02-27T19:29:05.432Z,99650.13
2024-02-27T19:31:32.997Z,99636.69
2024-02-27T19:34:00.028Z,99645.91
2024-02-27T19:36:26.915Z,99638.03
2024-02-27T19:38:53.656Z,99645.06
2024-02-27T19:41:20.389Z,99644.25
2024-02-27T19:43:47.642Z,99642.41
2024-02-27T19:46:16.966Z,99639.72
2024-02-27T19:48:44.621Z,99643.41
2024-02-27T19:51:15.365Z,99641.72
2024-02-27T19:53:47.152Z,99626.97
2024-02-27T19:56:15.443Z,99625.94
2024-02-27T19:58:42.232Z,99633.00
2024-02-27T20:01:09.081Z,99629.31
2024-02-27T20:03:36.189Z,99645.41
2024-02-27T20:06:03.043Z,99638.19
2024-02-27T20:08:29.805Z,99642.56
2024-02-27T20:10:56.511Z,99642.56
2024-02-27T20:13:23.358Z,99654.13
2024-02-27T20:15:50.670Z,99662.16
2024-02-27T20:18:18.136Z,99662.16
2024-02-27T20:20:45.162Z,99647.09
2024-02-27T20:23:12.250Z,99672.91
2024-02-27T20:25:40.355Z,99679.94
2024-02-27T20:28:07.112Z,99681.47
2024-02-27T20:30:33.940Z,99687.66
2024-02-27T20:33:00.867Z,99683.13
2024-02-27T20:35:27.648Z,99697.38
2024-02-27T20:37:54.364Z,99702.75
2024-02-27T20:40:21.879Z,99702.75
2024-02-27T20:42:48.678Z,99716.16
2024-02-27T20:45:15.675Z,99711.63
2024-02-27T20:47:42.677Z,99727.53
2024-02-27T20:50:12.352Z,99732.75
2024-02-27T20:52:39.522Z,99738.94
2024-02-27T20:55:07.994Z,99742.63
2024-02-27T20:57:35.161Z,99743.31
2024-02-27T21:00:02.798Z,99755.72
2024-02-27T21:02:32.820Z,99754.72
2024-02-27T21:05:00.113Z,99752.88
2024-02-27T21:07:27.011Z,99749.34
2024-02-27T21:09:54.044Z,99750.19
2024-02-27T21:12:21.294Z,99754.72
2024-02-27T21:14:48.257Z,99743.00
2024-02-27T21:17:15.153Z,99756.41
2024-02-27T21:19:41.965Z,99751.88
2024-02-27T21:22:09.384Z,99744.00
2024-02-27T21:24:36.384Z,99733.25
2024-02-27T21:27:03.257Z,99747.69
2024-02-27T21:29:30.482Z,99752.03
2024-02-27T21:31:57.560Z,99760.09
2024-02-27T21:34:24.307Z,99783.38
2024-02-27T21:36:52.563Z,99789.44
2024-02-27T21:39:19.539Z,99782.91
2024-02-27T21:41:46.440Z,99780.22
2024-02-27T21:44:13.628Z,99784.59
2024-02-27T21:46:41.281Z,99779.22
2024-02-27T21:49:08.201Z,99785.59
2024-02-27T21:51:41.164Z,99792.47
2024-02-27T21:54:10.963Z,99802.22
2024-02-27T21:56:37.768Z,99805.72
2024-02-27T21:59:04.510Z,99795.00
2024-02-27T22:01:33.411Z,99807.41
2024-02-27T22:04:02.510Z,99805.72
2024-02-27T22:06:29.225Z,99810.78
2024-02-27T22:08:57.518Z,99808.09
2024-02-27T22:11:25.585Z,99811.47
2024-02-27T22:13:52.328Z,99805.09
2024-02-27T22:16:19.303Z,99813.81
2024-02-27T22:18:46.127Z,99812.81
2024-02-27T22:21:13.123Z,99808.13
2024-02-27T22:23:40.292Z,99808.13
2024-02-27T22:26:07.433Z,99808.97
2024-02-27T22:28:34.226Z,99815.84
2024-02-27T22:31:01.189Z,99807.66
2024-02-27T22:33:28.025Z,99820.59
2024-02-27T22:35:54.884Z,99821.41
2024-02-27T22:38:21.810Z,99835.38
2024-02-27T22:40:48.547Z,99837.88
2024-02-27T22:43:15.336Z,99838.72
2024-02-27T22:45:45.731Z,99848.31
2024-02-27T22:48:13.413Z,99851.66
2024-02-27T22:50:40.343Z,99848.81
2024-02-27T22:53:10.170Z,99857.88
2024-02-27T22:55:37.623Z,99861.25
2024-02-27T22:58:05.041Z,99866.28
2024-02-27T23:00:31.849Z,99880.38
2024-02-27T23:03:01.394Z,99881.78
2024-02-27T23:05:28.113Z,99890.50
2024-02-27T23:07:55.394Z,99890.19
2024-02-27T23:10:22.828Z,99887.34
2024-02-27T23:12:53.968Z,99869.22
2024-02-27T23:15:20.905Z,99876.59
2024-02-27T23:17:48.562Z,99873.75
2024-02-27T23:20:18.961Z,99872.06
2024-02-27T23:22:45.823Z,99866.38
2024-02-27T23:25:13.490Z,99870.91
2024-02-27T23:27:40.675Z,99876.28
2024-02-27T23:30:08.933Z,99876.97
2024-02-27T23:32:37.292Z,99877.63
2024-02-27T23:35:04.411Z,99864.06
2024-02-27T23:37:31.304Z,99868.59
2024-02-27T23:39:58.174Z,99872.09
2024-02-27T23:42:26.102Z,99886.22
2024-02-27T23:44:55.670Z,99884.38
2024-02-27T23:47:22.554Z,99885.22
2024-02-27T23:49:49.522Z,99890.41
2024-02-27T23:52:16.473Z,99892.25
2024-02-27T23:54:43.946Z,99903.84
2024-02-27T23:57:11.041Z,99896.63
2024-02-27T23:59:37.847Z,99897.63
